sensor_id;sensor_type;location;lat;lon;timestamp;P1;durP1;ratioP1;P2;durP2;ratioP2
10586;SDS011;5341;47.606;7.576;2022-12-29T00:00:44;8.02;;;5.13;;
10586;SDS011;5341;47.606;7.576;2022-12-29T00:03:13;7.68;;;4.93;;
10586;SDS011;5341;47.606;7.576;2022-12-29T00:05:40;7.53;;;5.03;;
10586;SDS011;5341;47.606;7.576;2022-12-29T00:08:13;5.47;;;4.45;;
10586;SDS011;5341;47.606;7.576;2022-12-29T00:10:46;6.15;;;4.45;;
10586;SDS011;5341;47.606;7.576;2022-12-29T00:13:20;6.32;;;4.43;;
10586;SDS011;5341;47.606;7.576;2022-12-29T00:16:12;7.20;;;4.82;;
10586;SDS011;5341;47.606;7.576;2022-12-29T00:18:41;5.10;;;4.28;;
10586;SDS011;5341;47.606;7.576;2022-12-29T00:21:14;5.05;;;4.25;;
10586;SDS011;5341;47.606;7.576;2022-12-29T00:24:03;5.75;;;4.38;;
10586;SDS011;5341;47.606;7.576;2022-12-29T00:26:50;7.03;;;4.40;;
10586;SDS011;5341;47.606;7.576;2022-12-29T00:29:49;7.07;;;4.70;;
10586;SDS011;5341;47.606;7.576;2022-12-29T00:32:38;6.72;;;4.38;;
10586;SDS011;5341;47.606;7.576;2022-12-29T00:35:29;8.95;;;4.68;;
10586;SDS011;5341;47.606;7.576;2022-12-29T00:38:09;5.60;;;4.13;;
10586;SDS011;5341;47.606;7.576;2022-12-29T00:41:02;6.68;;;4.07;;
10586;SDS011;5341;47.606;7.576;2022-12-29T00:43:47;6.45;;;4.10;;
10586;SDS011;5341;47.606;7.576;2022-12-29T00:46:38;5.47;;;4.13;;
10586;SDS011;5341;47.606;7.576;2022-12-29T00:49:09;5.47;;;4.13;;
10586;SDS011;5341;47.606;7.576;2022-12-29T00:51:56;6.65;;;4.25;;
10586;SDS011;5341;47.606;7.576;2022-12-29T00:54:28;7.05;;;4.38;;
10586;SDS011;5341;47.606;7.576;2022-12-29T00:57:00;4.75;;;4.00;;
10586;SDS011;5341;47.606;7.576;2022-12-29T00:59:34;5.25;;;4.28;;
10586;SDS011;5341;47.606;7.576;2022-12-29T01:02:17;7.40;;;3.95;;
10586;SDS011;5341;47.606;7.576;2022-12-29T01:04:50;5.72;;;3.72;;
10586;SDS011;5341;47.606;7.576;2022-12-29T01:07:25;5.80;;;3.83;;
10586;SDS011;5341;47.606;7.576;2022-12-29T01:09:59;8.63;;;4.22;;
10586;SDS011;5341;47.606;7.576;2022-12-29T01:12:47;5.47;;;3.60;;
10586;SDS011;5341;47.606;7.576;2022-12-29T01:15:19;6.70;;;3.90;;
10586;SDS011;5341;47.606;7.576;2022-12-29T01:18:03;3.92;;;3.42;;
10586;SDS011;5341;47.606;7.576;2022-12-29T01:20:38;5.50;;;3.58;;
10586;SDS011;5341;47.606;7.576;2022-12-29T01:23:17;7.57;;;3.60;;
10586;SDS011;5341;47.606;7.576;2022-12-29T01:25:50;6.10;;;3.92;;
10586;SDS011;5341;47.606;7.576;2022-12-29T01:28:27;6.22;;;3.60;;
10586;SDS011;5341;47.606;7.576;2022-12-29T01:31:05;6.07;;;4.00;;
10586;SDS011;5341;47.606;7.576;2022-12-29T01:33:40;8.57;;;3.90;;
10586;SDS011;5341;47.606;7.576;2022-12-29T01:36:24;6.43;;;3.92;;
10586;SDS011;5341;47.606;7.576;2022-12-29T01:39:08;6.00;;;4.03;;
10586;SDS011;5341;47.606;7.576;2022-12-29T01:41:51;4.63;;;3.72;;
10586;SDS011;5341;47.606;7.576;2022-12-29T01:47:34;4.88;;;3.88;;
10586;SDS011;5341;47.606;7.576;2022-12-29T01:50:13;4.75;;;3.97;;
10586;SDS011;5341;47.606;7.576;2022-12-29T01:52:53;5.80;;;4.05;;
10586;SDS011;5341;47.606;7.576;2022-12-29T01:55:39;5.97;;;4.28;;
10586;SDS011;5341;47.606;7.576;2022-12-29T01:58:19;5.15;;;3.80;;
10586;SDS011;5341;47.606;7.576;2022-12-29T02:00:55;5.97;;;4.13;;
10586;SDS011;5341;47.606;7.576;2022-12-29T02:03:43;5.30;;;3.70;;
10586;SDS011;5341;47.606;7.576;2022-12-29T02:06:31;6.50;;;4.15;;
10586;SDS011;5341;47.606;7.576;2022-12-29T02:09:09;6.25;;;4.15;;
10586;SDS011;5341;47.606;7.576;2022-12-29T02:11:38;4.35;;;3.80;;
10586;SDS011;5341;47.606;7.576;2022-12-29T02:14:27;4.32;;;3.70;;
10586;SDS011;5341;47.606;7.576;2022-12-29T02:17:10;6.07;;;3.25;;
10586;SDS011;5341;47.606;7.576;2022-12-29T02:26:30;4.10;;;3.40;;
10586;SDS011;5341;47.606;7.576;2022-12-29T02:29:39;5.05;;;3.50;;
10586;SDS011;5341;47.606;7.576;2022-12-29T02:32:40;6.32;;;3.70;;
10586;SDS011;5341;47.606;7.576;2022-12-29T02:35:18;4.10;;;3.55;;
10586;SDS011;5341;47.606;7.576;2022-12-29T02:38:15;5.15;;;3.30;;
10586;SDS011;5341;47.606;7.576;2022-12-29T02:41:11;4.93;;;3.47;;
10586;SDS011;5341;47.606;7.576;2022-12-29T02:44:04;3.55;;;3.00;;
10586;SDS011;5341;47.606;7.576;2022-12-29T02:46:53;4.28;;;3.55;;
10586;SDS011;5341;47.606;7.576;2022-12-29T02:49:29;4.60;;;3.17;;
10586;SDS011;5341;47.606;7.576;2022-12-29T02:52:03;3.58;;;2.88;;
10586;SDS011;5341;47.606;7.576;2022-12-29T02:54:40;4.85;;;3.35;;
10586;SDS011;5341;47.606;7.576;2022-12-29T02:57:26;5.10;;;3.33;;
10586;SDS011;5341;47.606;7.576;2022-12-29T03:00:00;7.82;;;3.50;;
10586;SDS011;5341;47.606;7.576;2022-12-29T03:05:57;4.93;;;2.95;;
10586;SDS011;5341;47.606;7.576;2022-12-29T03:09:10;4.63;;;3.30;;
10586;SDS011;5341;47.606;7.576;2022-12-29T03:11:52;4.75;;;3.40;;
10586;SDS011;5341;47.606;7.576;2022-12-29T03:14:51;4.35;;;3.13;;
10586;SDS011;5341;47.606;7.576;2022-12-29T03:17:47;4.18;;;2.83;;
10586;SDS011;5341;47.606;7.576;2022-12-29T03:20:22;5.15;;;3.17;;
10586;SDS011;5341;47.606;7.576;2022-12-29T03:23:07;4.38;;;3.05;;
10586;SDS011;5341;47.606;7.576;2022-12-29T03:25:45;4.85;;;3.00;;
10586;SDS011;5341;47.606;7.576;2022-12-29T03:28:23;3.70;;;2.70;;
10586;SDS011;5341;47.606;7.576;2022-12-29T03:31:02;4.70;;;2.90;;
10586;SDS011;5341;47.606;7.576;2022-12-29T03:33:46;4.45;;;2.97;;
10586;SDS011;5341;47.606;7.576;2022-12-29T03:36:18;4.50;;;2.65;;
10586;SDS011;5341;47.606;7.576;2022-12-29T03:38:59;5.35;;;3.00;;
10586;SDS011;5341;47.606;7.576;2022-12-29T03:41:34;3.25;;;2.70;;
10586;SDS011;5341;47.606;7.576;2022-12-29T03:44:16;4.85;;;2.95;;
10586;SDS011;5341;47.606;7.576;2022-12-29T03:46:53;3.95;;;2.97;;
10586;SDS011;5341;47.606;7.576;2022-12-29T03:49:25;4.18;;;2.65;;
10586;SDS011;5341;47.606;7.576;2022-12-29T03:52:03;5.10;;;3.15;;
10586;SDS011;5341;47.606;7.576;2022-12-29T03:54:50;3.97;;;2.95;;
10586;SDS011;5341;47.606;7.576;2022-12-29T03:57:24;8.07;;;2.78;;
10586;SDS011;5341;47.606;7.576;2022-12-29T04:00:11;4.57;;;3.15;;
10586;SDS011;5341;47.606;7.576;2022-12-29T04:02:44;6.32;;;3.30;;
10586;SDS011;5341;47.606;7.576;2022-12-29T04:05:21;5.43;;;3.10;;
10586;SDS011;5341;47.606;7.576;2022-12-29T04:08:02;4.22;;;3.47;;
10586;SDS011;5341;47.606;7.576;2022-12-29T04:10:33;4.20;;;3.00;;
10586;SDS011;5341;47.606;7.576;2022-12-29T04:13:06;4.90;;;3.08;;
10586;SDS011;5341;47.606;7.576;2022-12-29T04:15:48;3.33;;;3.00;;
10586;SDS011;5341;47.606;7.576;2022-12-29T04:18:20;3.53;;;2.90;;
10586;SDS011;5341;47.606;7.576;2022-12-29T04:20:49;4.57;;;3.17;;
10586;SDS011;5341;47.606;7.576;2022-12-29T04:23:35;3.63;;;2.83;;
10586;SDS011;5341;47.606;7.576;2022-12-29T04:26:15;3.63;;;3.03;;
10586;SDS011;5341;47.606;7.576;2022-12-29T04:29:00;5.07;;;3.15;;
10586;SDS011;5341;47.606;7.576;2022-12-29T04:31:56;4.13;;;3.30;;
10586;SDS011;5341;47.606;7.576;2022-12-29T04:34:32;3.92;;;3.28;;
10586;SDS011;5341;47.606;7.576;2022-12-29T04:37:17;5.07;;;3.38;;
10586;SDS011;5341;47.606;7.576;2022-12-29T04:39:57;3.40;;;2.90;;
10586;SDS011;5341;47.606;7.576;2022-12-29T04:42:39;4.88;;;3.67;;
10586;SDS011;5341;47.606;7.576;2022-12-29T04:45:19;6.07;;;3.50;;
10586;SDS011;5341;47.606;7.576;2022-12-29T04:48:00;3.88;;;3.40;;
10586;SDS011;5341;47.606;7.576;2022-12-29T04:51:04;4.40;;;3.30;;
10586;SDS011;5341;47.606;7.576;2022-12-29T04:53:39;6.82;;;3.13;;
10586;SDS011;5341;47.606;7.576;2022-12-29T04:56:07;4.47;;;3.13;;
10586;SDS011;5341;47.606;7.576;2022-12-29T04:58:37;3.60;;;2.92;;
10586;SDS011;5341;47.606;7.576;2022-12-29T05:01:09;4.75;;;3.58;;
10586;SDS011;5341;47.606;7.576;2022-12-29T05:03:47;3.17;;;2.70;;
10586;SDS011;5341;47.606;7.576;2022-12-29T05:06:33;4.57;;;2.60;;
10586;SDS011;5341;47.606;7.576;2022-12-29T05:09:03;2.90;;;2.35;;
10586;SDS011;5341;47.606;7.576;2022-12-29T05:11:32;2.88;;;2.20;;
10586;SDS011;5341;47.606;7.576;2022-12-29T05:14:12;5.10;;;2.33;;
10586;SDS011;5341;47.606;7.576;2022-12-29T05:16:57;4.07;;;2.13;;
10586;SDS011;5341;47.606;7.576;2022-12-29T05:19:27;4.68;;;2.08;;
10586;SDS011;5341;47.606;7.576;2022-12-29T05:22:19;3.03;;;2.10;;
10586;SDS011;5341;47.606;7.576;2022-12-29T05:24:57;3.95;;;2.17;;
10586;SDS011;5341;47.606;7.576;2022-12-29T05:27:44;3.35;;;2.00;;
10586;SDS011;5341;47.606;7.576;2022-12-29T05:30:43;3.75;;;2.58;;
10586;SDS011;5341;47.606;7.576;2022-12-29T05:33:18;3.53;;;2.10;;
10586;SDS011;5341;47.606;7.576;2022-12-29T05:35:48;3.72;;;2.05;;
10586;SDS011;5341;47.606;7.576;2022-12-29T05:38:19;4.82;;;2.00;;
10586;SDS011;5341;47.606;7.576;2022-12-29T05:41:02;3.67;;;2.00;;
10586;SDS011;5341;47.606;7.576;2022-12-29T05:43:55;2.53;;;2.00;;
10586;SDS011;5341;47.606;7.576;2022-12-29T05:46:50;2.53;;;1.80;;
10586;SDS011;5341;47.606;7.576;2022-12-29T05:49:49;5.13;;;2.20;;
10586;SDS011;5341;47.606;7.576;2022-12-29T05:52:54;4.47;;;2.10;;
10586;SDS011;5341;47.606;7.576;2022-12-29T05:55:34;4.95;;;2.05;;
10586;SDS011;5341;47.606;7.576;2022-12-29T05:58:21;3.17;;;2.15;;
10586;SDS011;5341;47.606;7.576;2022-12-29T06:01:05;2.88;;;1.77;;
10586;SDS011;5341;47.606;7.576;2022-12-29T06:03:42;4.80;;;1.80;;
10586;SDS011;5341;47.606;7.576;2022-12-29T06:06:27;3.53;;;2.25;;
10586;SDS011;5341;47.606;7.576;2022-12-29T06:09:21;2.53;;;1.70;;
10586;SDS011;5341;47.606;7.576;2022-12-29T06:11:52;3.05;;;1.90;;
10586;SDS011;5341;47.606;7.576;2022-12-29T06:14:39;6.35;;;2.17;;
10586;SDS011;5341;47.606;7.576;2022-12-29T06:17:17;2.65;;;1.77;;
10586;SDS011;5341;47.606;7.576;2022-12-29T06:19:56;2.92;;;1.63;;
10586;SDS011;5341;47.606;7.576;2022-12-29T06:22:35;2.67;;;1.75;;
10586;SDS011;5341;47.606;7.576;2022-12-29T06:25:08;2.60;;;1.70;;
10586;SDS011;5341;47.606;7.576;2022-12-29T06:27:48;2.83;;;1.83;;
10586;SDS011;5341;47.606;7.576;2022-12-29T06:30:20;5.25;;;2.22;;
10586;SDS011;5341;47.606;7.576;2022-12-29T06:33:04;3.63;;;1.63;;
10586;SDS011;5341;47.606;7.576;2022-12-29T06:35:43;2.60;;;1.58;;
10586;SDS011;5341;47.606;7.576;2022-12-29T06:38:17;2.40;;;2.10;;
10586;SDS011;5341;47.606;7.576;2022-12-29T06:40:51;3.80;;;2.00;;
10586;SDS011;5341;47.606;7.576;2022-12-29T06:43:57;2.30;;;1.88;;
10586;SDS011;5341;47.606;7.576;2022-12-29T06:46:59;3.35;;;2.17;;
10586;SDS011;5341;47.606;7.576;2022-12-29T06:49:33;3.15;;;1.70;;
10586;SDS011;5341;47.606;7.576;2022-12-29T06:52:28;2.83;;;1.70;;
10586;SDS011;5341;47.606;7.576;2022-12-29T06:55:20;5.05;;;1.75;;
10586;SDS011;5341;47.606;7.576;2022-12-29T06:58:05;2.85;;;1.70;;
10586;SDS011;5341;47.606;7.576;2022-12-29T07:00:43;2.95;;;1.58;;
10586;SDS011;5341;47.606;7.576;2022-12-29T07:03:35;3.08;;;2.00;;
10586;SDS011;5341;47.606;7.576;2022-12-29T07:06:26;3.15;;;1.80;;
10586;SDS011;5341;47.606;7.576;2022-12-29T07:09:10;4.95;;;1.80;;
10586;SDS011;5341;47.606;7.576;2022-12-29T07:11:45;2.80;;;1.67;;
10586;SDS011;5341;47.606;7.576;2022-12-29T07:14:17;3.30;;;1.90;;
10586;SDS011;5341;47.606;7.576;2022-12-29T07:16:53;2.65;;;1.48;;
10586;SDS011;5341;47.606;7.576;2022-12-29T07:19:24;4.50;;;1.80;;
10586;SDS011;5341;47.606;7.576;2022-12-29T07:22:06;2.83;;;1.40;;
10586;SDS011;5341;47.606;7.576;2022-12-29T07:24:38;1.90;;;1.50;;
10586;SDS011;5341;47.606;7.576;2022-12-29T07:27:06;1.40;;;1.30;;
10586;SDS011;5341;47.606;7.576;2022-12-29T07:29:37;1.70;;;1.40;;
10586;SDS011;5341;47.606;7.576;2022-12-29T07:32:05;4.03;;;1.65;;
10586;SDS011;5341;47.606;7.576;2022-12-29T07:34:33;2.40;;;1.50;;
10586;SDS011;5341;47.606;7.576;2022-12-29T07:37:02;3.38;;;1.50;;
10586;SDS011;5341;47.606;7.576;2022-12-29T07:39:31;2.90;;;1.70;;
10586;SDS011;5341;47.606;7.576;2022-12-29T07:42:11;4.57;;;1.90;;
10586;SDS011;5341;47.606;7.576;2022-12-29T07:44:44;3.25;;;1.75;;
10586;SDS011;5341;47.606;7.576;2022-12-29T07:47:17;3.13;;;1.70;;
10586;SDS011;5341;47.606;7.576;2022-12-29T07:49:50;2.30;;;1.77;;
10586;SDS011;5341;47.606;7.576;2022-12-29T07:52:18;4.10;;;2.00;;
10586;SDS011;5341;47.606;7.576;2022-12-29T07:54:50;2.92;;;1.80;;
10586;SDS011;5341;47.606;7.576;2022-12-29T07:57:23;2.78;;;1.77;;
10586;SDS011;5341;47.606;7.576;2022-12-29T07:59:54;2.60;;;1.80;;
10586;SDS011;5341;47.606;7.576;2022-12-29T08:02:24;2.38;;;1.60;;
10586;SDS011;5341;47.606;7.576;2022-12-29T08:04:56;2.90;;;1.60;;
10586;SDS011;5341;47.606;7.576;2022-12-29T08:07:26;2.60;;;1.65;;
10586;SDS011;5341;47.606;7.576;2022-12-29T08:09:59;3.25;;;1.88;;
10586;SDS011;5341;47.606;7.576;2022-12-29T08:12:30;4.75;;;1.70;;
10586;SDS011;5341;47.606;7.576;2022-12-29T08:15:04;3.40;;;2.00;;
10586;SDS011;5341;47.606;7.576;2022-12-29T08:17:36;3.58;;;2.20;;
10586;SDS011;5341;47.606;7.576;2022-12-29T08:20:05;6.10;;;2.50;;
10586;SDS011;5341;47.606;7.576;2022-12-29T08:22:37;5.90;;;2.38;;
10586;SDS011;5341;47.606;7.576;2022-12-29T08:25:06;3.47;;;2.30;;
10586;SDS011;5341;47.606;7.576;2022-12-29T08:27:42;4.38;;;2.10;;
10586;SDS011;5341;47.606;7.576;2022-12-29T08:30:11;4.15;;;2.05;;
10586;SDS011;5341;47.606;7.576;2022-12-29T08:32:41;2.95;;;1.80;;
10586;SDS011;5341;47.606;7.576;2022-12-29T08:35:12;2.58;;;1.83;;
10586;SDS011;5341;47.606;7.576;2022-12-29T08:37:44;4.03;;;1.80;;
10586;SDS011;5341;47.606;7.576;2022-12-29T08:40:18;5.25;;;2.20;;
10586;SDS011;5341;47.606;7.576;2022-12-29T08:42:49;3.28;;;1.90;;
10586;SDS011;5341;47.606;7.576;2022-12-29T08:45:18;5.07;;;1.85;;
10586;SDS011;5341;47.606;7.576;2022-12-29T08:47:48;3.40;;;1.95;;
10586;SDS011;5341;47.606;7.576;2022-12-29T08:50:35;2.70;;;1.90;;
10586;SDS011;5341;47.606;7.576;2022-12-29T08:53:22;4.00;;;1.80;;
10586;SDS011;5341;47.606;7.576;2022-12-29T08:55:59;2.33;;;1.88;;
10586;SDS011;5341;47.606;7.576;2022-12-29T08:58:32;2.88;;;1.80;;
10586;SDS011;5341;47.606;7.576;2022-12-29T09:01:06;3.40;;;1.90;;
10586;SDS011;5341;47.606;7.576;2022-12-29T09:03:38;2.65;;;1.70;;
10586;SDS011;5341;47.606;7.576;2022-12-29T09:06:14;2.85;;;1.70;;
10586;SDS011;5341;47.606;7.576;2022-12-29T09:08:52;2.92;;;1.90;;
10586;SDS011;5341;47.606;7.576;2022-12-29T09:11:30;3.35;;;1.70;;
10586;SDS011;5341;47.606;7.576;2022-12-29T09:14:16;5.60;;;2.20;;
10586;SDS011;5341;47.606;7.576;2022-12-29T09:16:47;3.72;;;2.28;;
10586;SDS011;5341;47.606;7.576;2022-12-29T09:19:37;3.22;;;1.77;;
10586;SDS011;5341;47.606;7.576;2022-12-29T09:22:06;4.43;;;2.00;;
10586;SDS011;5341;47.606;7.576;2022-12-29T09:24:36;6.53;;;2.00;;
10586;SDS011;5341;47.606;7.576;2022-12-29T09:27:04;2.72;;;1.88;;
10586;SDS011;5341;47.606;7.576;2022-12-29T09:29:35;5.20;;;1.80;;
10586;SDS011;5341;47.606;7.576;2022-12-29T09:32:06;4.43;;;1.80;;
10586;SDS011;5341;47.606;7.576;2022-12-29T09:34:43;4.20;;;1.98;;
10586;SDS011;5341;47.606;7.576;2022-12-29T09:37:13;3.47;;;2.08;;
10586;SDS011;5341;47.606;7.576;2022-12-29T09:39:44;2.53;;;1.80;;
10586;SDS011;5341;47.606;7.576;2022-12-29T09:42:23;4.32;;;1.95;;
10586;SDS011;5341;47.606;7.576;2022-12-29T09:45:12;3.33;;;2.00;;
10586;SDS011;5341;47.606;7.576;2022-12-29T09:47:52;3.17;;;1.80;;
10586;SDS011;5341;47.606;7.576;2022-12-29T09:50:23;2.30;;;1.80;;
10586;SDS011;5341;47.606;7.576;2022-12-29T09:53:05;4.05;;;2.53;;
10586;SDS011;5341;47.606;7.576;2022-12-29T09:55:45;4.57;;;2.20;;
10586;SDS011;5341;47.606;7.576;2022-12-29T09:58:20;4.07;;;2.10;;
10586;SDS011;5341;47.606;7.576;2022-12-29T10:01:04;2.85;;;2.03;;
10586;SDS011;5341;47.606;7.576;2022-12-29T10:03:40;3.95;;;1.80;;
10586;SDS011;5341;47.606;7.576;2022-12-29T10:06:17;3.33;;;1.80;;
10586;SDS011;5341;47.606;7.576;2022-12-29T10:08:50;6.07;;;2.03;;
10586;SDS011;5341;47.606;7.576;2022-12-29T10:11:31;3.15;;;1.65;;
10586;SDS011;5341;47.606;7.576;2022-12-29T10:14:21;4.00;;;1.90;;
10586;SDS011;5341;47.606;7.576;2022-12-29T10:17:04;2.97;;;1.95;;
10586;SDS011;5341;47.606;7.576;2022-12-29T10:19:54;3.17;;;2.10;;
10586;SDS011;5341;47.606;7.576;2022-12-29T10:22:40;2.25;;;1.90;;
10586;SDS011;5341;47.606;7.576;2022-12-29T10:25:37;4.57;;;1.70;;
10586;SDS011;5341;47.606;7.576;2022-12-29T10:28:15;5.82;;;1.90;;
10586;SDS011;5341;47.606;7.576;2022-12-29T10:30:51;2.42;;;1.70;;
10586;SDS011;5341;47.606;7.576;2022-12-29T10:33:34;3.17;;;1.98;;
10586;SDS011;5341;47.606;7.576;2022-12-29T10:36:13;3.88;;;1.90;;
10586;SDS011;5341;47.606;7.576;2022-12-29T10:38:51;3.40;;;1.80;;
10586;SDS011;5341;47.606;7.576;2022-12-29T10:41:28;3.15;;;1.77;;
10586;SDS011;5341;47.606;7.576;2022-12-29T10:44:04;4.68;;;1.75;;
10586;SDS011;5341;47.606;7.576;2022-12-29T10:46:33;2.17;;;1.50;;
10586;SDS011;5341;47.606;7.576;2022-12-29T10:49:14;3.85;;;1.67;;
10586;SDS011;5341;47.606;7.576;2022-12-29T10:51:56;2.22;;;1.50;;
10586;SDS011;5341;47.606;7.576;2022-12-29T10:54:29;2.30;;;1.70;;
10586;SDS011;5341;47.606;7.576;2022-12-29T10:57:10;2.47;;;1.60;;
10586;SDS011;5341;47.606;7.576;2022-12-29T10:59:49;1.90;;;1.50;;
10586;SDS011;5341;47.606;7.576;2022-12-29T11:02:28;3.67;;;1.75;;
10586;SDS011;5341;47.606;7.576;2022-12-29T11:05:22;2.95;;;1.60;;
10586;SDS011;5341;47.606;7.576;2022-12-29T11:08:04;2.47;;;1.35;;
10586;SDS011;5341;47.606;7.576;2022-12-29T11:10:44;2.13;;;1.70;;
10586;SDS011;5341;47.606;7.576;2022-12-29T11:13:14;2.92;;;1.60;;
10586;SDS011;5341;47.606;7.576;2022-12-29T11:15:44;2.28;;;1.70;;
10586;SDS011;5341;47.606;7.576;2022-12-29T11:18:20;3.28;;;1.60;;
10586;SDS011;5341;47.606;7.576;2022-12-29T11:20:52;2.97;;;2.05;;
10586;SDS011;5341;47.606;7.576;2022-12-29T11:23:22;2.95;;;1.60;;
10586;SDS011;5341;47.606;7.576;2022-12-29T11:26:13;2.30;;;1.60;;
10586;SDS011;5341;47.606;7.576;2022-12-29T11:28:43;3.10;;;1.63;;
10586;SDS011;5341;47.606;7.576;2022-12-29T11:31:15;1.52;;;1.42;;
10586;SDS011;5341;47.606;7.576;2022-12-29T11:33:49;3.28;;;1.30;;
10586;SDS011;5341;47.606;7.576;2022-12-29T11:36:19;2.65;;;1.60;;
10586;SDS011;5341;47.606;7.576;2022-12-29T11:38:50;2.90;;;1.58;;
10586;SDS011;5341;47.606;7.576;2022-12-29T11:41:20;3.25;;;1.45;;
10586;SDS011;5341;47.606;7.576;2022-12-29T11:43:50;2.47;;;1.70;;
10586;SDS011;5341;47.606;7.576;2022-12-29T11:46:19;2.67;;;1.50;;
10586;SDS011;5341;47.606;7.576;2022-12-29T11:48:51;2.58;;;1.60;;
10586;SDS011;5341;47.606;7.576;2022-12-29T11:51:26;3.83;;;1.40;;
10586;SDS011;5341;47.606;7.576;2022-12-29T11:53:59;3.55;;;1.75;;
10586;SDS011;5341;47.606;7.576;2022-12-29T11:56:33;1.73;;;1.42;;
10586;SDS011;5341;47.606;7.576;2022-12-29T12:05:10;2.58;;;1.83;;
10586;SDS011;5341;47.606;7.576;2022-12-29T12:07:49;3.40;;;2.40;;
10586;SDS011;5341;47.606;7.576;2022-12-29T12:10:21;2.55;;;1.77;;
10586;SDS011;5341;47.606;7.576;2022-12-29T12:12:53;3.35;;;2.00;;
10586;SDS011;5341;47.606;7.576;2022-12-29T12:15:30;5.20;;;2.38;;
10586;SDS011;5341;47.606;7.576;2022-12-29T12:18:09;2.35;;;2.10;;
10586;SDS011;5341;47.606;7.576;2022-12-29T12:20:45;5.15;;;3.22;;
10586;SDS011;5341;47.606;7.576;2022-12-29T12:23:21;3.85;;;2.95;;
10586;SDS011;5341;47.606;7.576;2022-12-29T12:26:11;4.63;;;3.47;;
10586;SDS011;5341;47.606;7.576;2022-12-29T12:28:48;3.63;;;2.58;;
10586;SDS011;5341;47.606;7.576;2022-12-29T12:31:25;3.50;;;2.63;;
10586;SDS011;5341;47.606;7.576;2022-12-29T12:34:10;9.02;;;6.10;;
10586;SDS011;5341;47.606;7.576;2022-12-29T12:36:47;4.00;;;3.13;;
10586;SDS011;5341;47.606;7.576;2022-12-29T12:39:34;7.65;;;4.93;;
10586;SDS011;5341;47.606;7.576;2022-12-29T12:42:15;5.00;;;3.88;;
10586;SDS011;5341;47.606;7.576;2022-12-29T12:44:59;7.45;;;5.13;;
10586;SDS011;5341;47.606;7.576;2022-12-29T12:47:50;7.95;;;5.90;;
10586;SDS011;5341;47.606;7.576;2022-12-29T12:50:32;12.07;;;8.38;;
10586;SDS011;5341;47.606;7.576;2022-12-29T12:53:26;7.43;;;6.00;;
10586;SDS011;5341;47.606;7.576;2022-12-29T12:56:29;7.85;;;6.18;;
10586;SDS011;5341;47.606;7.576;2022-12-29T12:59:11;7.45;;;5.72;;
10586;SDS011;5341;47.606;7.576;2022-12-29T13:01:54;11.65;;;8.07;;
10586;SDS011;5341;47.606;7.576;2022-12-29T13:04:34;7.68;;;5.45;;
10586;SDS011;5341;47.606;7.576;2022-12-29T13:07:17;5.07;;;3.80;;
10586;SDS011;5341;47.606;7.576;2022-12-29T13:10:01;5.07;;;3.17;;
10586;SDS011;5341;47.606;7.576;2022-12-29T13:12:47;3.88;;;2.40;;
10586;SDS011;5341;47.606;7.576;2022-12-29T13:15:23;5.60;;;2.90;;
10586;SDS011;5341;47.606;7.576;2022-12-29T13:18:05;4.88;;;2.40;;
10586;SDS011;5341;47.606;7.576;2022-12-29T13:20:53;3.13;;;2.35;;
10586;SDS011;5341;47.606;7.576;2022-12-29T13:23:30;3.85;;;2.20;;
10586;SDS011;5341;47.606;7.576;2022-12-29T13:26:11;5.28;;;3.78;;
10586;SDS011;5341;47.606;7.576;2022-12-29T13:28:50;4.25;;;2.50;;
10586;SDS011;5341;47.606;7.576;2022-12-29T13:31:26;4.07;;;2.38;;
10586;SDS011;5341;47.606;7.576;2022-12-29T13:34:00;3.85;;;2.60;;
10586;SDS011;5341;47.606;7.576;2022-12-29T13:36:39;8.35;;;4.25;;
10586;SDS011;5341;47.606;7.576;2022-12-29T13:39:10;4.28;;;2.72;;
10586;SDS011;5341;47.606;7.576;2022-12-29T13:41:43;4.72;;;3.00;;
10586;SDS011;5341;47.606;7.576;2022-12-29T13:44:18;6.47;;;4.72;;
10586;SDS011;5341;47.606;7.576;2022-12-29T13:46:50;4.40;;;3.10;;
10586;SDS011;5341;47.606;7.576;2022-12-29T13:49:23;3.28;;;2.78;;
10586;SDS011;5341;47.606;7.576;2022-12-29T13:52:07;4.28;;;2.75;;
10586;SDS011;5341;47.606;7.576;2022-12-29T13:54:44;3.50;;;3.05;;
10586;SDS011;5341;47.606;7.576;2022-12-29T13:57:28;3.63;;;2.92;;
10586;SDS011;5341;47.606;7.576;2022-12-29T14:00:13;5.15;;;4.05;;
10586;SDS011;5341;47.606;7.576;2022-12-29T14:02:50;5.88;;;4.22;;
10586;SDS011;5341;47.606;7.576;2022-12-29T14:05:43;6.40;;;5.10;;
10586;SDS011;5341;47.606;7.576;2022-12-29T14:08:36;5.75;;;4.28;;
10586;SDS011;5341;47.606;7.576;2022-12-29T14:11:05;4.20;;;3.47;;
10586;SDS011;5341;47.606;7.576;2022-12-29T14:13:41;4.85;;;3.40;;
10586;SDS011;5341;47.606;7.576;2022-12-29T14:19:13;5.95;;;3.10;;
10586;SDS011;5341;47.606;7.576;2022-12-29T14:21:50;4.15;;;3.45;;
10586;SDS011;5341;47.606;7.576;2022-12-29T14:24:37;5.47;;;3.22;;
10586;SDS011;5341;47.606;7.576;2022-12-29T14:33:18;4.07;;;3.20;;
10586;SDS011;5341;47.606;7.576;2022-12-29T14:35:48;4.88;;;3.15;;
10586;SDS011;5341;47.606;7.576;2022-12-29T14:38:21;4.57;;;3.20;;
10586;SDS011;5341;47.606;7.576;2022-12-29T14:40:51;4.53;;;2.92;;
10586;SDS011;5341;47.606;7.576;2022-12-29T14:43:51;6.32;;;3.20;;
10586;SDS011;5341;47.606;7.576;2022-12-29T14:46:21;6.32;;;3.78;;
10586;SDS011;5341;47.606;7.576;2022-12-29T14:48:54;5.28;;;2.83;;
10586;SDS011;5341;47.606;7.576;2022-12-29T14:51:30;6.00;;;3.50;;
10586;SDS011;5341;47.606;7.576;2022-12-29T14:54:01;4.30;;;3.28;;
10586;SDS011;5341;47.606;7.576;2022-12-29T14:57:09;7.43;;;4.85;;
10586;SDS011;5341;47.606;7.576;2022-12-29T14:59:47;3.97;;;3.30;;
10586;SDS011;5341;47.606;7.576;2022-12-29T15:02:20;3.83;;;3.28;;
10586;SDS011;5341;47.606;7.576;2022-12-29T15:04:58;8.77;;;5.03;;
10586;SDS011;5341;47.606;7.576;2022-12-29T15:07:29;5.32;;;3.67;;
10586;SDS011;5341;47.606;7.576;2022-12-29T15:10:01;6.50;;;3.42;;
10586;SDS011;5341;47.606;7.576;2022-12-29T15:12:36;4.25;;;2.65;;
10586;SDS011;5341;47.606;7.576;2022-12-29T15:15:17;5.10;;;2.40;;
10586;SDS011;5341;47.606;7.576;2022-12-29T15:17:50;2.85;;;2.30;;
10586;SDS011;5341;47.606;7.576;2022-12-29T15:20:24;4.80;;;2.08;;
10586;SDS011;5341;47.606;7.576;2022-12-29T15:22:55;3.80;;;1.80;;
10586;SDS011;5341;47.606;7.576;2022-12-29T15:25:25;4.22;;;2.20;;
10586;SDS011;5341;47.606;7.576;2022-12-29T15:27:54;2.83;;;1.83;;
10586;SDS011;5341;47.606;7.576;2022-12-29T15:30:30;3.05;;;2.00;;
10586;SDS011;5341;47.606;7.576;2022-12-29T15:32:58;6.43;;;2.33;;
10586;SDS011;5341;47.606;7.576;2022-12-29T15:35:30;2.90;;;2.30;;
10586;SDS011;5341;47.606;7.576;2022-12-29T15:38:00;4.20;;;2.58;;
10586;SDS011;5341;47.606;7.576;2022-12-29T15:40:43;5.28;;;2.65;;
10586;SDS011;5341;47.606;7.576;2022-12-29T15:43:22;4.85;;;2.83;;
10586;SDS011;5341;47.606;7.576;2022-12-29T15:46:00;3.28;;;2.20;;
10586;SDS011;5341;47.606;7.576;2022-12-29T15:48:28;5.07;;;2.00;;
10586;SDS011;5341;47.606;7.576;2022-12-29T15:51:01;2.63;;;1.98;;
10586;SDS011;5341;47.606;7.576;2022-12-29T15:53:29;3.78;;;2.15;;
10586;SDS011;5341;47.606;7.576;2022-12-29T15:56:00;5.78;;;2.03;;
10586;SDS011;5341;47.606;7.576;2022-12-29T15:58:29;5.72;;;2.15;;
10586;SDS011;5341;47.606;7.576;2022-12-29T16:01:15;4.40;;;2.08;;
10586;SDS011;5341;47.606;7.576;2022-12-29T16:03:44;4.10;;;2.00;;
10586;SDS011;5341;47.606;7.576;2022-12-29T16:06:27;3.80;;;2.40;;
10586;SDS011;5341;47.606;7.576;2022-12-29T16:08:57;4.57;;;2.17;;
10586;SDS011;5341;47.606;7.576;2022-12-29T16:11:26;3.58;;;2.55;;
10586;SDS011;5341;47.606;7.576;2022-12-29T16:13:58;4.72;;;2.80;;
10586;SDS011;5341;47.606;7.576;2022-12-29T16:16:28;5.07;;;2.38;;
10586;SDS011;5341;47.606;7.576;2022-12-29T16:18:59;4.15;;;2.40;;
10586;SDS011;5341;47.606;7.576;2022-12-29T16:21:33;3.90;;;2.67;;
10586;SDS011;5341;47.606;7.576;2022-12-29T16:24:04;3.90;;;2.50;;
10586;SDS011;5341;47.606;7.576;2022-12-29T16:26:35;6.15;;;3.85;;
10586;SDS011;5341;47.606;7.576;2022-12-29T16:29:04;4.82;;;2.38;;
10586;SDS011;5341;47.606;7.576;2022-12-29T16:31:35;5.18;;;2.60;;
10586;SDS011;5341;47.606;7.576;2022-12-29T16:34:11;3.55;;;2.42;;
10586;SDS011;5341;47.606;7.576;2022-12-29T16:36:53;4.22;;;2.30;;